Terminal Aerodrome Forecast
Issued by NWS Albany, NY

Home | Current Version | Previous Version | Text Only | Print | Product List | Glossary On
Versions: 1 2 3 4 5 6 7 8 9 10 11 12 13 14 15 16 17 18
000
FTUS41 KALY 200500 CCA
TAFALB
TAF COR
KALB 200558Z 2006/2106 VRB02KT P6SM SCT045 SCT150 BKN250
     FM201400 18005KT P6SM BKN120 BKN200
     FM201600 18008KT P6SM BKN120
     FM202300 17004KT P6SM OVC100=

USA.gov is the U.S. government's official web portal to all federal, state and local government web resources and services.